Witts, Indiana
Current Conditions -  °F | °C
As of 7:55 PM on Tuesday 21 Oct 2014 (Local Time) from KI67 Reporting Station
Overcast Overcast  
Wind Chill: 10°   Ceiling: 4900
Heat Index: 10°   Visibility: 10mi
Dew Point:   Wind: 7mph
Humidity: 76%   Direction: 40°NE
Pressure: 30.13"   Gusts: NA
Location:  39.6086°N, 84.9137°W
Report Text: KI67 212355Z AUTO 04006KT 10SM SCT027 SCT038 OVC049 10/06 A3013 RMK AO1
Loading
Personal Weather Stations






























Interactive Weather Map
Tropical Storm Tracking
New forecast layout! Learn more

10-Day Weather Forecast

Advertisements
Track Severe Weather on mobile